Time;durP1;ratioP1;P1;durP2;ratioP2;P2;SDS_P1;SDS_P2;PMS_P1;PMS_P2;Temp;Humidity;BMP_temperature;BMP_pressure;BME280_temperature;BME280_humidity;BME280_pressure;Samples;Min_cycle;Max_cycle;Signal;HPM_P1;HPM_P2
2021/09/07 00:02:22;;;;;;;31.85;28.45;;;;;;;19.71;78.92;101950.97;4918887;29;20048;-82
2021/09/07 00:04:48;;;;;;;30.30;27.05;;;;;;;19.62;79.21;101944.41;4929995;29;20032;-82
2021/09/07 00:07:14;;;;;;;31.38;28.20;;;;;;;19.56;79.57;101947.41;4940943;29;20086;-81
2021/09/07 00:09:43;;;;;;;33.53;28.98;;;;;;;19.48;79.88;101951.31;4941572;29;20052;-82
2021/09/07 00:12:09;;;;;;;31.33;28.13;;;;;;;19.49;80.01;101949.53;4940932;29;20058;-82
2021/09/07 00:14:35;;;;;;;30.65;27.48;;;;;;;19.37;79.96;101932.53;4940598;29;20047;-81
2021/09/07 00:17:01;;;;;;;29.98;25.58;;;;;;;19.44;80.18;101948.94;4921419;29;20405;-81
2021/09/07 00:19:27;;;;;;;30.90;27.67;;;;;;;19.43;80.06;101955.16;4920766;29;20044;-82
2021/09/07 00:21:53;;;;;;;34.13;28.67;;;;;;;19.44;79.99;101949.78;4918352;29;20051;-82
2021/09/07 00:24:20;;;;;;;32.35;28.83;;;;;;;19.28;80.22;101928.59;4919444;29;20122;-82
2021/09/07 00:26:47;;;;;;;32.05;28.63;;;;;;;19.33;80.41;101938.94;4921000;29;20086;-82
2021/09/07 00:29:16;;;;;;;31.38;27.48;;;;;;;19.32;80.48;101938.09;4938609;29;20048;-81
2021/09/07 00:31:42;;;;;;;29.95;26.85;;;;;;;19.33;80.36;101929.22;4938468;29;20048;-80
2021/09/07 00:34:08;;;;;;;31.00;27.73;;;;;;;19.32;80.26;101930.16;4937303;29;20058;-82
2021/09/07 00:36:33;;;;;;;30.48;26.30;;;;;;;19.20;80.47;101917.59;4941060;29;20055;-82
2021/09/07 00:39:01;;;;;;;30.45;27.20;;;;;;;19.26;80.47;101932.28;4918978;29;20048;-82
2021/09/07 00:41:28;;;;;;;32.13;27.95;;;;;;;19.22;80.62;101933.38;4915145;29;20048;-82
2021/09/07 00:43:57;;;;;;;30.00;27.02;;;;;;;19.11;80.60;101918.94;4917110;29;20478;-81
2021/09/07 00:46:24;;;;;;;30.35;27.25;;;;;;;19.08;80.63;101916.47;4910429;29;20120;-82
2021/09/07 00:48:50;;;;;;;29.73;26.52;;;;;;;19.11;80.73;101931.31;4913962;29;20449;-82
2021/09/07 00:51:26;;;;;;;29.63;26.42;;;;;;;18.94;81.10;101917.22;4912009;29;20390;-82
2021/09/07 00:53:56;;;;;;;30.58;27.33;;;;;;;19.02;81.14;101930.03;4910930;29;20051;-81
2021/09/07 00:56:35;;;;;;;33.50;27.83;;;;;;;18.97;81.32;101927.63;4909527;29;20052;-81
2021/09/07 00:59:07;;;;;;;29.92;26.73;;;;;;;18.96;81.67;101917.16;4912309;29;20514;-81
2021/09/07 01:01:41;;;;;;;32.28;28.88;;;;;;;19.00;81.46;101916.03;4916082;29;20449;-81
2021/09/07 01:04:11;;;;;;;33.78;27.90;;;;;;;19.07;80.81;101914.75;4908890;29;20067;-81
2021/09/07 01:06:40;;;;;;;30.92;27.65;;;;;;;19.12;80.55;101918.00;4910103;29;20110;-82
2021/09/07 01:09:08;;;;;;;30.95;27.48;;;;;;;19.10;80.38;101906.63;4927302;29;20071;-81
2021/09/07 01:11:50;;;;;;;32.15;28.23;;;;;;;19.12;80.41;101918.00;4910184;29;20489;-81
2021/09/07 01:14:31;;;;;;;29.52;26.50;;;;;;;18.99;80.20;101885.22;4923875;29;20044;-82
2021/09/07 01:17:02;;;;;;;30.42;26.95;;;;;;;18.92;80.29;101887.34;4908009;29;20127;-82
2021/09/07 01:19:42;;;;;;;27.45;24.52;;;;;;;18.92;80.21;101883.84;4909533;29;20156;-81
2021/09/07 01:22:12;;;;;;;29.58;26.48;;;;;;;19.00;80.13;101901.00;4910951;29;20091;-82
2021/09/07 01:24:43;;;;;;;29.85;26.73;;;;;;;18.88;80.44;101896.34;4908569;29;20048;-82
2021/09/07 01:27:16;;;;;;;30.48;27.17;;;;;;;18.81;80.56;101893.19;4914410;29;20569;-82
2021/09/07 01:29:49;;;;;;;28.15;25.27;;;;;;;18.75;80.84;101882.06;4924119;29;20418;-81
2021/09/07 01:32:23;;;;;;;29.90;26.80;;;;;;;18.76;80.98;101889.94;4916315;29;20048;-81
2021/09/07 01:34:56;;;;;;;30.00;26.77;;;;;;;18.67;81.28;101885.13;4909948;29;20044;-81
2021/09/07 01:37:27;;;;;;;31.40;28.00;;;;;;;18.53;81.54;101875.31;4911169;29;20059;-81
2021/09/07 01:39:57;;;;;;;29.08;26.02;;;;;;;18.50;81.83;101876.31;4908068;29;20052;-81
2021/09/07 01:42:30;;;;;;;31.98;28.58;;;;;;;18.65;81.83;101893.16;4909097;29;20047;-81
2021/09/07 01:45:00;;;;;;;32.85;29.48;;;;;;;18.68;81.71;101897.44;4909865;29;20048;-81
2021/09/07 01:47:31;;;;;;;32.17;28.50;;;;;;;18.66;81.91;101897.53;4908609;29;20040;-81
2021/09/07 01:50:01;;;;;;;32.45;28.58;;;;;;;18.45;82.22;101875.69;4908621;29;20063;-80
2021/09/07 01:52:39;;;;;;;35.10;31.33;;;;;;;18.57;82.48;101900.66;4909030;29;20533;-79
2021/09/07 01:55:09;;;;;;;;;;;;;;;18.43;82.92;101895.22;4914373;29;20099;-80
2021/09/07 01:57:42;;;;;;;32.95;29.13;;;;;;;18.24;83.04;101875.88;4908042;29;21275;-80
2021/09/07 02:00:14;;;;;;;34.45;30.77;;;;;;;18.43;83.00;101903.16;4912320;29;20465;-79
2021/09/07 02:02:41;;;;;;;34.15;30.27;;;;;;;18.34;82.67;101878.91;4919606;29;20124;-80
2021/09/07 02:05:07;;;;;;;31.00;27.60;;;;;;;18.47;82.03;101889.69;4915678;29;20062;-80
2021/09/07 02:07:33;;;;;;;31.30;27.55;;;;;;;18.52;82.53;101898.25;4934038;29;20366;-79
2021/09/07 02:09:59;;;;;;;32.65;29.23;;;;;;;18.50;82.51;101888.69;4916809;29;20051;-80
2021/09/07 02:12:25;;;;;;;32.28;28.77;;;;;;;18.48;82.66;101891.41;4916324;29;20087;-80
2021/09/07 02:14:53;;;;;;;35.20;31.40;;;;;;;18.43;82.95;101887.28;4913829;29;20055;-82
2021/09/07 02:17:20;;;;;;;32.60;29.10;;;;;;;18.39;82.93;101884.81;4904950;29;20056;-82
2021/09/07 02:19:46;;;;;;;32.67;28.70;;;;;;;18.38;82.87;101887.53;4916899;29;20075;-82
2021/09/07 02:22:12;;;;;;;33.75;29.88;;;;;;;18.27;82.99;101881.94;4917194;29;20489;-83
2021/09/07 02:24:38;;;;;;;34.40;29.30;;;;;;;18.19;83.24;101883.19;4916417;29;20104;-82
2021/09/07 02:27:04;;;;;;;30.98;27.83;;;;;;;18.18;83.09;101885.94;4916290;29;20055;-82
2021/09/07 02:29:31;;;;;;;34.83;30.30;;;;;;;18.17;83.04;101879.78;4920014;29;20414;-82
2021/09/07 02:31:57;;;;;;;31.48;28.10;;;;;;;18.11;83.21;101884.53;4919584;29;20080;-82
2021/09/07 02:34:23;;;;;;;33.25;29.33;;;;;;;18.03;83.52;101882.28;4920279;29;20052;-82
2021/09/07 02:36:49;;;;;;;32.10;28.45;;;;;;;17.83;83.29;101857.69;4919711;29;20112;-80
2021/09/07 02:39:15;;;;;;;35.60;29.38;;;;;;;17.75;83.91;101873.06;4923070;29;20458;-80
2021/09/07 02:41:41;;;;;;;32.85;28.48;;;;;;;17.85;83.97;101894.59;4942160;29;20040;-79
2021/09/07 02:44:12;;;;;;;32.58;29.08;;;;;;;17.76;83.87;101880.06;4942835;29;20040;-80
2021/09/07 02:46:38;;;;;;;30.73;27.42;;;;;;;17.70;84.01;101872.44;4930026;28;20564;-80
2021/09/07 02:49:04;;;;;;;32.80;29.27;;;;;;;17.84;83.91;101884.97;4922989;29;20048;-79
2021/09/07 02:51:30;;;;;;;32.45;29.00;;;;;;;17.82;83.64;101881.53;4922677;29;20417;-80
2021/09/07 02:53:58;;;;;;;33.17;28.75;;;;;;;17.76;84.03;101882.72;4915848;29;20044;-80
2021/09/07 02:56:24;;;;;;;32.15;28.13;;;;;;;17.62;83.74;101848.22;4919410;29;20059;-80
2021/09/07 02:58:50;;;;;;;31.70;28.33;;;;;;;17.64;83.74;101857.75;4920041;29;20059;-80
2021/09/07 03:01:17;;;;;;;32.03;27.77;;;;;;;17.63;83.57;101858.69;4919650;29;20048;-80
2021/09/07 03:03:43;;;;;;;31.77;28.38;;;;;;;17.72;83.56;101871.44;4919532;29;20049;-80
2021/09/07 03:06:09;;;;;;;31.95;27.75;;;;;;;17.68;83.63;101866.38;4918907;29;20135;-80
2021/09/07 03:08:35;;;;;;;30.98;26.90;;;;;;;17.74;83.30;101885.41;4913378;29;20051;-80
2021/09/07 03:11:02;;;;;;;31.83;28.17;;;;;;;17.73;83.42;101882.84;4918436;29;20048;-80
2021/09/07 03:13:27;;;;;;;30.40;27.20;;;;;;;17.73;83.47;101872.28;4919215;29;20048;-80
2021/09/07 03:15:54;;;;;;;32.17;27.60;;;;;;;17.56;83.56;101873.13;4919279;29;20541;-80
2021/09/07 03:18:20;;;;;;;30.58;27.30;;;;;;;17.63;83.46;101885.09;4920100;29;20048;-80
2021/09/07 03:20:46;;;;;;;31.30;28.08;;;;;;;17.65;83.71;101882.38;4918743;29;20382;-80
2021/09/07 03:23:13;;;;;;;31.10;27.25;;;;;;;17.67;83.43;101886.63;4919852;29;20055;-81
2021/09/07 03:25:38;;;;;;;29.40;26.38;;;;;;;17.65;83.36;101882.38;4918957;29;20052;-81
2021/09/07 03:28:04;;;;;;;29.80;26.60;;;;;;;17.52;83.27;101863.66;4919098;29;20482;-81
2021/09/07 03:30:31;;;;;;;30.30;27.17;;;;;;;17.60;83.01;101886.09;4918367;29;20048;-81
2021/09/07 03:32:56;;;;;;;28.48;25.48;;;;;;;17.58;83.17;101881.81;4919117;29;20052;-81
2021/09/07 03:35:23;;;;;;;30.65;27.40;;;;;;;17.49;83.34;101872.56;4919648;29;20446;-81
2021/09/07 03:37:49;;;;;;;28.85;25.77;;;;;;;17.49;83.30;101867.31;4922542;29;20028;-81
2021/09/07 03:40:16;;;;;;;30.80;25.90;;;;;;;17.50;83.41;101870.78;4939772;29;20063;-80
2021/09/07 03:42:42;;;;;;;28.45;25.48;;;;;;;17.49;83.39;101867.31;4941572;29;20040;-81
2021/09/07 03:45:11;;;;;;;29.80;26.60;;;;;;;17.42;83.16;101858.81;4921997;29;20048;-81
2021/09/07 03:47:43;;;;;;;29.92;26.80;;;;;;;17.48;83.26;101870.00;4921609;29;20075;-80
2021/09/07 03:50:12;;;;;;;28.15;25.17;;;;;;;17.32;83.03;101847.00;4919286;29;20052;-81
2021/09/07 03:52:38;;;;;;;26.90;24.10;;;;;;;17.36;83.04;101853.00;4925061;29;20028;-80
2021/09/07 03:55:05;;;;;;;27.70;24.83;;;;;;;17.42;83.17;101872.00;4940158;29;20039;-81
2021/09/07 03:57:33;;;;;;;28.50;25.38;;;;;;;17.25;83.21;101850.84;4939555;29;20055;-81
2021/09/07 03:59:59;;;;;;;33.20;26.85;;;;;;;16.95;83.27;101814.44;4937088;29;20051;-81
2021/09/07 04:02:25;;;;;;;32.58;27.27;;;;;;;17.22;83.82;101870.34;4938887;29;20035;-80
2021/09/07 04:04:52;;;;;;;27.23;24.33;;;;;;;17.23;83.58;101861.47;4930244;29;20056;-81
2021/09/07 04:07:19;;;;;;;29.23;24.92;;;;;;;17.23;82.78;101856.19;4931706;29;20064;-81
2021/09/07 04:09:47;;;;;;;25.95;23.25;;;;;;;17.38;82.94;101865.19;4917654;29;20413;-80
2021/09/07 04:12:13;;;;;;;28.25;25.15;;;;;;;17.15;82.62;101831.09;4934165;29;20069;-80
2021/09/07 04:14:40;;;;;;;28.20;24.65;;;;;;;17.27;82.83;101846.34;4918269;29;20130;-80
2021/09/07 04:17:06;;;;;;;25.17;22.63;;;;;;;17.30;82.71;101856.75;4916941;29;20054;-81
2021/09/07 04:19:33;;;;;;;27.65;23.73;;;;;;;17.28;82.55;101851.56;4918789;29;20536;-80
2021/09/07 04:21:59;;;;;;;26.65;23.23;;;;;;;17.26;82.64;101861.34;4901787;29;20180;-80
2021/09/07 04:24:30;;;;;;;25.70;22.98;;;;;;;17.28;82.56;101853.34;4925381;29;20071;-78
2021/09/07 04:26:58;;;;;;;28.30;24.73;;;;;;;17.11;82.63;101831.28;4941227;29;20068;-79
2021/09/07 04:29:25;;;;;;;26.77;23.90;;;;;;;17.20;82.95;101851.06;4923070;29;20055;-81
2021/09/07 04:31:54;;;;;;;28.58;25.15;;;;;;;17.25;82.51;101853.50;4957129;28;20058;-79
2021/09/07 04:34:22;;;;;;;28.75;24.73;;;;;;;17.21;82.71;101841.38;4939881;28;20116;-80
2021/09/07 04:36:48;;;;;;;33.28;28.05;;;;;;;17.26;83.08;101849.94;4959553;28;20040;-78
2021/09/07 04:39:13;;;;;;;28.95;25.58;;;;;;;17.25;82.94;101842.94;4948577;28;20043;-78
2021/09/07 04:41:40;;;;;;;31.60;28.02;;;;;;;17.18;83.38;101844.16;4941432;29;20132;-80
2021/09/07 04:44:07;;;;;;;28.17;25.15;;;;;;;17.17;83.52;101850.38;4922532;29;20048;-81
2021/09/07 04:46:33;;;;;;;30.77;26.38;;;;;;;17.12;83.54;101837.38;4889290;29;20131;-80
2021/09/07 04:48:59;;;;;;;31.83;27.60;;;;;;;17.13;83.59;101844.38;4902939;29;20093;-80
2021/09/07 04:51:26;;;;;;;29.40;26.38;;;;;;;17.10;83.61;101845.38;4914451;29;20131;-80
2021/09/07 04:53:56;;;;;;;31.75;27.70;;;;;;;16.95;83.91;101825.00;4917986;29;20044;-80
2021/09/07 04:56:23;;;;;;;31.67;25.77;;;;;;;17.03;83.75;101840.44;4918258;29;20063;-81
2021/09/07 04:58:49;;;;;;;27.98;24.90;;;;;;;17.05;83.87;101854.44;4918440;29;20052;-81
2021/09/07 05:01:17;;;;;;;30.13;26.75;;;;;;;17.00;83.53;101849.38;4912918;29;20478;-81
2021/09/07 05:03:43;;;;;;;31.92;28.45;;;;;;;17.02;83.75;101857.22;4933589;29;20520;-81
2021/09/07 05:06:11;;;;;;;33.60;28.40;;;;;;;16.95;84.02;101859.28;4918219;29;20408;-81
2021/09/07 05:08:37;;;;;;;28.98;25.83;;;;;;;16.88;83.76;101853.41;4941157;29;20032;-80
2021/09/07 05:11:03;;;;;;;28.90;24.73;;;;;;;16.86;83.81;101846.50;4942982;29;20032;-80
2021/09/07 05:13:29;;;;;;;28.95;25.85;;;;;;;16.94;83.35;101855.81;4940632;28;20040;-80
2021/09/07 05:15:57;;;;;;;26.58;23.75;;;;;;;16.92;83.47;101847.09;4933127;28;20478;-81
2021/09/07 05:18:23;;;;;;;32.53;27.40;;;;;;;16.92;83.51;101859.44;4903762;29;20048;-81
2021/09/07 05:20:50;;;;;;;29.67;25.88;;;;;;;16.86;83.67;101863.19;4912654;29;20142;-81
2021/09/07 05:23:16;;;;;;;29.65;26.45;;;;;;;16.83;83.82;101868.56;4922134;29;20051;-81
2021/09/07 05:25:45;;;;;;;27.77;24.77;;;;;;;16.76;83.50;101856.59;4912196;29;20108;-81
2021/09/07 05:28:11;;;;;;;31.90;26.92;;;;;;;16.82;83.87;101858.97;4913617;29;20052;-81
2021/09/07 05:30:36;;;;;;;31.42;28.02;;;;;;;16.78;83.95;101860.91;4916824;29;20083;-81
2021/09/07 05:33:06;;;;;;;31.58;28.05;;;;;;;16.68;83.54;101841.13;4918647;29;20047;-81
2021/09/07 05:35:32;;;;;;;30.67;27.30;;;;;;;16.77;83.94;101868.84;4917270;29;20502;-81
2021/09/07 05:37:59;;;;;;;30.77;27.63;;;;;;;16.79;83.86;101867.03;4931470;29;20492;-81
2021/09/07 05:40:26;;;;;;;28.98;25.98;;;;;;;16.73;83.55;101846.22;4920075;29;20048;-81
2021/09/07 05:42:52;;;;;;;28.52;25.52;;;;;;;16.82;83.23;101869.53;4917666;29;20058;-81
2021/09/07 05:45:18;;;;;;;30.02;26.05;;;;;;;16.83;83.34;101875.66;4916973;29;20080;-82
2021/09/07 05:47:44;;;;;;;28.63;25.65;;;;;;;16.83;83.39;101876.47;4916928;29;20058;-81
2021/09/07 05:50:14;;;;;;;29.55;26.40;;;;;;;16.81;82.98;101873.09;4916928;29;20040;-81
2021/09/07 05:52:39;;;;;;;29.40;26.30;;;;;;;16.78;83.13;101863.53;4916522;29;20444;-81
2021/09/07 05:55:08;;;;;;;29.65;25.42;;;;;;;16.73;83.04;101857.59;4915103;29;20386;-81
2021/09/07 05:57:34;;;;;;;29.88;25.85;;;;;;;16.83;83.01;101862.47;4917739;29;20095;-81
2021/09/07 06:00:01;;;;;;;29.00;25.98;;;;;;;16.92;82.77;101878.75;4930512;29;20117;-81
2021/09/07 06:02:30;;;;;;;30.73;27.50;;;;;;;16.99;82.52;101863.50;4915555;29;20183;-81
2021/09/07 06:04:56;;;;;;;29.27;24.83;;;;;;;17.06;82.51;101874.63;4920841;29;20090;-82
2021/09/07 06:07:22;;;;;;;31.85;27.02;;;;;;;17.09;82.31;101879.75;4922130;29;20060;-81
2021/09/07 06:09:50;;;;;;;28.08;25.27;;;;;;;17.13;82.17;101876.03;4919699;29;20052;-81
2021/09/07 06:12:16;;;;;;;28.33;25.33;;;;;;;17.12;82.01;101877.84;4920704;29;20052;-81
2021/09/07 06:14:42;;;;;;;29.73;26.55;;;;;;;17.10;82.16;101876.16;4921089;29;20048;-81
2021/09/07 06:17:10;;;;;;;31.10;27.65;;;;;;;17.08;82.28;101873.59;4920345;29;20135;-81
2021/09/07 06:19:39;;;;;;;32.05;27.77;;;;;;;17.08;82.10;101868.34;4920817;29;20059;-81
2021/09/07 06:22:05;;;;;;;32.63;27.80;;;;;;;17.06;82.05;101858.78;4920686;29;20481;-81
2021/09/07 06:24:31;;;;;;;31.08;26.98;;;;;;;17.22;81.96;101883.53;4919737;29;20214;-81
2021/09/07 06:26:57;;;;;;;32.42;27.58;;;;;;;17.15;81.54;101847.81;4920867;29;20044;-81
2021/09/07 06:29:24;;;;;;;34.28;28.52;;;;;;;17.36;81.28;101869.66;4919830;29;20048;-81
2021/09/07 06:31:50;;;;;;;29.73;26.58;;;;;;;17.42;81.00;101861.44;4920675;29;20052;-81
2021/09/07 06:34:16;;;;;;;34.15;28.02;;;;;;;17.58;80.89;101872.09;4920412;29;20103;-81
2021/09/07 06:36:42;;;;;;;32.40;28.38;;;;;;;17.63;80.91;101868.41;4919013;29;20051;-81
2021/09/07 06:39:09;;;;;;;33.83;28.95;;;;;;;17.67;81.10;101870.78;4918410;29;20040;-81
2021/09/07 06:41:37;;;;;;;32.55;29.15;;;;;;;17.66;80.84;101857.69;4919038;29;20389;-81
2021/09/07 06:44:03;;;;;;;30.05;26.92;;;;;;;17.81;80.21;101880.69;4920628;29;20051;-80
2021/09/07 06:46:30;;;;;;;30.73;27.27;;;;;;;17.82;79.94;101879.75;4908481;29;20115;-80
2021/09/07 06:48:57;;;;;;;32.60;29.17;;;;;;;17.91;79.46;101878.44;4921955;29;20055;-80
2021/09/07 06:51:22;;;;;;;30.73;27.42;;;;;;;17.93;79.10;101882.72;4941266;29;20108;-79
2021/09/07 06:53:48;;;;;;;31.27;28.08;;;;;;;17.92;79.13;101865.16;4926554;29;20048;-79
2021/09/07 06:56:14;;;;;;;30.60;27.45;;;;;;;17.96;78.83;101865.03;4917388;29;20195;-80
2021/09/07 06:58:41;;;;;;;29.52;26.52;;;;;;;18.21;78.28;101885.75;4916969;29;20064;-79
2021/09/07 07:01:07;;;;;;;31.98;28.52;;;;;;;18.27;77.97;101874.03;4915363;29;20044;-81
2021/09/07 07:03:35;;;;;;;29.70;26.77;;;;;;;18.35;77.73;101874.47;4910458;29;20742;-80
2021/09/07 07:06:04;;;;;;;31.95;27.90;;;;;;;18.42;77.69;101877.66;4917464;29;20059;-81
2021/09/07 07:08:30;;;;;;;31.27;28.08;;;;;;;18.51;77.55;101880.66;4918466;29;20051;-80
2021/09/07 07:10:56;;;;;;;31.80;27.33;;;;;;;18.42;77.55;101861.78;4911501;29;20048;-80
2021/09/07 07:13:22;;;;;;;32.58;28.17;;;;;;;18.59;77.24;101880.28;4919240;29;20087;-81
2021/09/07 07:15:48;;;;;;;30.02;26.65;;;;;;;18.70;77.05;101884.97;4919136;29;20165;-81
2021/09/07 07:18:14;;;;;;;31.73;28.30;;;;;;;18.83;76.51;101879.88;4921616;29;20060;-80
2021/09/07 07:20:41;;;;;;;33.80;28.30;;;;;;;18.86;75.85;101855.91;4941994;28;20036;-79
2021/09/07 07:23:07;;;;;;;32.13;28.00;;;;;;;19.03;75.52;101862.94;4941546;29;20176;-81
2021/09/07 07:25:34;;;;;;;31.00;27.63;;;;;;;19.34;74.51;101885.88;4925318;29;20384;-80
2021/09/07 07:28:00;;;;;;;31.33;27.92;;;;;;;19.10;74.84;101847.56;4920333;29;20048;-82
2021/09/07 07:30:26;;;;;;;32.80;29.40;;;;;;;19.33;74.29;101880.69;4917964;29;20052;-81
2021/09/07 07:32:54;;;;;;;30.88;27.70;;;;;;;19.38;74.56;101886.56;4917829;29;20048;-81
2021/09/07 07:35:23;;;;;;;30.83;27.58;;;;;;;19.60;73.79;101888.84;4918615;29;20131;-80
2021/09/07 07:37:49;;;;;;;29.85;26.63;;;;;;;19.71;73.54;101885.56;4920438;29;20063;-82
2021/09/07 07:40:16;;;;;;;29.05;25.52;;;;;;;19.76;73.46;101878.25;4921386;29;20112;-80
2021/09/07 07:42:41;;;;;;;33.25;29.73;;;;;;;19.91;72.80;101881.81;4919000;29;20131;-80
2021/09/07 07:45:08;;;;;;;32.13;27.20;;;;;;;19.96;72.89;101887.69;4922926;29;20087;-80
2021/09/07 07:47:34;;;;;;;46.78;29.20;;;;;;;20.09;72.54;101884.31;4922142;29;20056;-78
2021/09/07 07:50:01;;;;;;;39.75;29.00;;;;;;;20.18;72.15;101881.13;4903389;29;20048;-80
2021/09/07 07:52:27;;;;;;;31.50;25.05;;;;;;;20.31;71.92;101879.44;4934421;29;20044;-80
2021/09/07 07:54:52;;;;;;;32.42;26.05;;;;;;;20.42;71.55;101854.03;4919099;29;20055;-80
2021/09/07 07:57:20;;;;;;;27.30;24.55;;;;;;;20.66;70.30;101864.94;4918850;29;20060;-80
2021/09/07 07:59:46;;;;;;;27.52;24.65;;;;;;;20.51;70.12;101848.19;4916925;29;20406;-80
2021/09/07 08:02:13;;;;;;;25.73;23.20;;;;;;;20.64;70.46;101870.34;4918681;29;20052;-81
2021/09/07 08:04:40;;;;;;;27.08;24.33;;;;;;;20.55;70.26;101849.69;4933610;29;20040;-83
2021/09/07 08:07:07;;;;;;;25.50;22.85;;;;;;;20.82;69.60;101869.31;4935494;29;20048;-82
2021/09/07 08:09:33;;;;;;;24.83;22.33;;;;;;;20.86;69.46;101842.50;4934723;29;20054;-80
2021/09/07 08:11:59;;;;;;;24.92;22.35;;;;;;;21.11;69.56;101854.19;4932530;29;20052;-80
2021/09/07 08:14:28;;;;;;;25.55;23.02;;;;;;;21.19;68.90;101869.59;4926237;29;20478;-81
2021/09/07 08:16:55;;;;;;;24.80;22.30;;;;;;;21.16;68.56;101862.69;4918516;29;20121;-78
2021/09/07 08:19:21;;;;;;;27.40;24.42;;;;;;;21.22;68.47;101861.47;4920020;29;20048;-79
2021/09/07 08:21:48;;;;;;;23.83;20.30;;;;;;;21.34;68.65;101843.88;4918762;29;20052;-78
2021/09/07 08:24:14;;;;;;;25.30;22.88;;;;;;;21.56;67.50;101853.94;4916252;29;20044;-80
2021/09/07 08:26:40;;;;;;;24.75;22.08;;;;;;;21.57;67.58;101855.66;4915876;29;20071;-80
2021/09/07 08:29:06;;;;;;;23.58;21.00;;;;;;;21.73;67.05;101850.19;4916512;29;20124;-79
2021/09/07 08:31:33;;;;;;;23.00;20.70;;;;;;;21.72;67.04;101828.06;4925699;29;20415;-82
2021/09/07 08:33:59;;;;;;;21.73;19.33;;;;;;;22.02;65.74;101842.00;4909974;29;20055;-80
2021/09/07 08:36:27;;;;;;;20.40;18.30;;;;;;;22.25;64.45;101847.56;4909976;29;20048;-81
2021/09/07 08:39:04;;;;;;;25.80;18.85;;;;;;;22.33;64.25;101851.38;4928831;29;20056;-82
2021/09/07 08:41:31;;;;;;;19.88;17.88;;;;;;;22.56;62.88;101856.94;4912396;29;20072;-81
2021/09/07 08:43:57;;;;;;;17.50;15.35;;;;;;;22.75;62.61;101850.28;4909406;29;20040;-80
2021/09/07 08:46:23;;;;;;;18.83;16.13;;;;;;;22.77;62.09;101833.25;4911042;29;20070;-82
2021/09/07 08:48:49;;;;;;;17.77;15.90;;;;;;;23.10;61.20;101838.91;4910010;29;20040;-81
2021/09/07 08:51:17;;;;;;;19.45;17.38;;;;;;;23.18;60.39;101849.88;4910632;29;20515;-81
2021/09/07 08:53:44;;;;;;;18.50;16.58;;;;;;;23.06;60.48;101848.06;4912474;29;20052;-82
2021/09/07 08:56:12;;;;;;;17.42;15.35;;;;;;;22.97;60.58;101830.94;4911583;29;20064;-82
2021/09/07 08:58:38;;;;;;;18.40;16.52;;;;;;;23.28;60.26;101858.03;4909469;29;20497;-82
2021/09/07 09:01:30;;;;;;;18.23;16.33;;;;;;;23.27;59.55;101843.00;4924326;29;20215;-81
2021/09/07 09:04:36;;;;;;;15.43;13.90;;;;;;;23.56;59.54;101853.28;4908266;29;20048;-80
2021/09/07 09:07:06;;;;;;;18.33;15.65;;;;;;;23.52;59.09;101854.50;4904944;29;20048;-79
2021/09/07 09:09:45;;;;;;;16.92;15.18;;;;;;;23.66;58.99;101859.66;4909506;29;20059;-79
2021/09/07 09:12:42;;;;;;;17.85;16.05;;;;;;;23.81;58.22;101842.50;4909927;29;20095;-80
2021/09/07 09:15:24;;;;;;;18.70;16.70;;;;;;;23.96;57.96;101848.50;4924599;29;20052;-79
2021/09/07 09:18:06;;;;;;;25.17;17.15;;;;;;;24.05;57.91;101852.25;4910604;29;20523;-79
2021/09/07 09:20:41;;;;;;;15.93;14.10;;;;;;;24.18;57.79;101841.50;4909190;29;20048;-80
2021/09/07 09:23:17;;;;;;;16.83;15.13;;;;;;;24.13;56.85;101835.66;4909168;29;20056;-78
2021/09/07 09:25:46;;;;;;;17.60;15.85;;;;;;;24.27;57.46;101834.59;4910980;29;20052;-78
2021/09/07 09:28:21;;;;;;;16.58;14.77;;;;;;;24.23;57.76;101836.63;4920943;29;20154;-80
2021/09/07 09:30:54;;;;;;;16.55;13.77;;;;;;;24.37;57.97;101827.53;4898753;29;20079;-80
2021/09/07 09:33:23;;;;;;;13.45;12.10;;;;;;;24.50;57.00;101831.88;4917546;29;20048;-79
2021/09/07 09:35:56;;;;;;;16.63;13.73;;;;;;;24.65;56.75;101828.00;4935683;29;20044;-78
2021/09/07 09:38:34;;;;;;;14.27;12.90;;;;;;;24.81;56.18;101827.63;4945508;29;20047;-79
2021/09/07 09:41:05;;;;;;;14.15;12.27;;;;;;;24.93;56.12;101823.97;4934875;29;20031;-78
2021/09/07 09:43:46;;;;;;;14.65;13.15;;;;;;;24.92;55.77;101826.78;4928333;29;20053;-78
2021/09/07 09:46:24;;;;;;;14.23;12.80;;;;;;;24.90;55.70;101821.56;4919566;29;20040;-78
2021/09/07 09:48:51;;;;;;;14.25;11.85;;;;;;;24.94;56.16;101820.31;4928965;29;20036;-78
2021/09/07 09:51:20;;;;;;;14.70;12.82;;;;;;;25.09;55.83;101812.88;4927644;29;20059;-79
2021/09/07 09:53:51;;;;;;;13.98;12.55;;;;;;;25.04;56.13;101819.59;4919255;29;20466;-79
2021/09/07 09:56:19;;;;;;;13.13;11.75;;;;;;;25.18;55.55;101818.44;4899507;29;20478;-79
2021/09/07 09:58:47;;;;;;;13.85;12.32;;;;;;;25.15;55.75;101810.69;4901886;29;20139;-81
2021/09/07 10:01:16;;;;;;;15.95;11.65;;;;;;;25.27;55.04;101809.66;4906617;29;20056;-78
2021/09/07 10:03:44;;;;;;;11.70;10.45;;;;;;;25.59;54.84;101808.81;4904959;29;20083;-78
2021/09/07 10:06:10;;;;;;;13.45;11.18;;;;;;;25.66;53.26;101785.06;4905986;29;20056;-78
2021/09/07 10:08:41;;;;;;;16.83;10.80;;;;;;;25.77;53.57;101785.00;4927226;29;20075;-78
2021/09/07 10:11:15;;;;;;;12.48;9.98;;;;;;;26.01;52.62;101806.09;4917237;29;20052;-75
2021/09/07 10:13:46;;;;;;;15.02;11.52;;;;;;;26.02;52.65;101801.59;4921098;29;20056;-82
2021/09/07 10:16:37;;;;;;;10.80;9.70;;;;;;;25.71;50.85;101794.38;4922155;29;20036;-80
2021/09/07 10:19:13;;;;;;;17.63;10.95;;;;;;;25.79;51.42;101784.84;4932319;29;20059;-80
2021/09/07 10:26:38;;;;;;;9.90;8.93;;;;;;;26.24;49.72;101781.03;4918465;29;20475;-81
2021/09/07 10:29:12;;;;;;;13.63;8.85;;;;;;;26.18;49.70;101753.81;4917565;29;20052;-81
2021/09/07 10:31:46;;;;;;;10.82;8.05;;;;;;;26.47;49.28;101769.09;4918064;29;20055;-80
2021/09/07 10:34:17;;;;;;;13.25;8.05;;;;;;;26.73;48.37;101781.97;4934201;29;20052;-80
2021/09/07 10:37:04;;;;;;;8.52;7.63;;;;;;;26.88;47.42;101771.75;4964305;29;20064;-81
2021/09/07 10:39:42;;;;;;;9.32;7.75;;;;;;;26.78;47.46;101771.75;4940674;29;20040;-81
2021/09/07 10:42:14;;;;;;;10.02;8.23;;;;;;;26.66;47.13;101764.81;4934317;29;20450;-81
2021/09/07 10:44:59;;;;;;;11.15;8.05;;;;;;;26.70;46.75;101758.16;4920691;29;20055;-80
2021/09/07 10:47:41;;;;;;;8.52;7.43;;;;;;;26.76;46.27;101751.44;4917146;29;20056;-81
2021/09/07 10:50:07;;;;;;;13.73;7.63;;;;;;;27.00;47.11;101751.88;4907908;29;20040;-82
2021/09/07 10:52:36;;;;;;;8.30;7.47;;;;;;;27.12;46.37;101754.41;4920753;29;20040;-81
2021/09/07 10:55:11;;;;;;;9.80;7.20;;;;;;;27.39;46.54;101748.31;4920741;29;20064;-82
2021/09/07 10:57:56;;;;;;;9.32;7.20;;;;;;;27.58;45.67;101751.97;4920399;29;20052;-81
2021/09/07 11:00:26;;;;;;;10.38;7.60;;;;;;;27.69;45.71;101743.75;4920929;29;20048;-81
2021/09/07 11:02:56;;;;;;;10.43;7.82;;;;;;;27.41;45.86;101743.69;4935797;29;20492;-80
2021/09/07 11:05:23;;;;;;;8.63;7.30;;;;;;;27.41;45.99;101735.63;4921069;29;20480;-79
2021/09/07 11:08:17;;;;;;;9.05;7.22;;;;;;;27.42;45.54;101718.56;4926496;29;20079;-78
2021/09/07 11:11:25;;;;;;;9.63;6.10;;;;;;;27.67;45.27;101731.47;4926607;29;20119;-77
2021/09/07 11:13:54;;;;;;;8.07;6.55;;;;;;;27.58;44.64;101720.63;4922580;29;20052;-78
2021/09/07 11:16:20;;;;;;;8.55;7.20;;;;;;;27.68;45.78;101722.44;4934880;29;20055;-82
2021/09/07 11:18:47;;;;;;;11.52;7.43;;;;;;;27.49;44.96;101675.94;4919710;29;20111;-79
2021/09/07 11:21:22;;;;;;;9.82;6.85;;;;;;;27.80;45.16;101707.84;4921471;29;20055;-79
2021/09/07 11:25:11;;;;;;;16.15;6.60;;;;;;;28.05;43.89;101697.44;4927448;29;20469;-79
2021/09/07 11:27:58;;;;;;;14.20;7.22;;;;;;;28.14;44.85;101696.56;4934702;29;20071;-80